Time;durP1;ratioP1;P1;durP2;ratioP2;P2;SDS_P1;SDS_P2;PMS_P1;PMS_P2;Temp;Humidity;BMP_temperature;BMP_pressure;BME280_temperature;BME280_humidity;BME280_pressure;Samples;Min_cycle;Max_cycle;Signal;HPM_P1;HPM_P2
2023/03/14 00:01:35;;;;;;;25.37;5.07;;;9.90;99.90;;;;;;5051993;28;20218;-80
2023/03/14 00:04:04;;;;;;;26.53;4.53;;;9.90;99.90;;;;;;5062630;28;20292;-79
2023/03/14 00:06:32;;;;;;;25.73;5.77;;;9.80;99.90;;;;;;5073473;28;20225;-79
2023/03/14 00:08:59;;;;;;;25.33;4.63;;;9.80;99.90;;;;;;5066298;28;20226;-76
2023/03/14 00:11:26;;;;;;;15.73;4.30;;;9.80;99.90;;;;;;5055927;28;20280;-77
2023/03/14 00:13:54;;;;;;;25.37;4.77;;;9.80;99.90;;;;;;5072374;28;20331;-78
2023/03/14 00:16:21;;;;;;;20.47;4.80;;;9.80;99.90;;;;;;5072286;28;20198;-82
2023/03/14 00:18:48;;;;;;;17.77;4.30;;;9.80;99.90;;;;;;5054536;28;20592;-80
2023/03/14 00:21:15;;;;;;;19.47;6.07;;;9.80;99.90;;;;;;5052935;28;20229;-79
2023/03/14 00:23:43;;;;;;;25.23;4.90;;;9.80;99.90;;;;;;5052507;28;20213;-79
2023/03/14 00:26:12;;;;;;;28.63;5.37;;;9.80;99.90;;;;;;5053800;28;20289;-80
2023/03/14 00:28:40;;;;;;;25.67;4.70;;;9.80;99.90;;;;;;5053075;28;20198;-79
2023/03/14 00:31:10;;;;;;;17.23;5.40;;;9.80;99.90;;;;;;5052883;28;20665;-78
2023/03/14 00:33:37;;;;;;;19.63;4.53;;;9.80;99.90;;;;;;5052878;28;20617;-79
2023/03/14 00:36:08;;;;;;;21.67;4.63;;;9.70;99.90;;;;;;5052689;28;20190;-79
2023/03/14 00:38:36;;;;;;;27.97;5.63;;;9.70;99.90;;;;;;5052912;28;20276;-78
2023/03/14 00:41:05;;;;;;;24.13;4.77;;;9.70;99.90;;;;;;5052639;28;20681;-80
2023/03/14 00:43:32;;;;;;;17.93;4.67;;;9.70;99.90;;;;;;5052442;28;20289;-80
2023/03/14 00:45:59;;;;;;;19.57;4.73;;;9.80;99.90;;;;;;5052378;28;20200;-78
2023/03/14 00:48:28;;;;;;;20.23;3.63;;;9.80;99.90;;;;;;5052431;28;20228;-81
2023/03/14 00:50:55;;;;;;;24.40;4.50;;;9.80;99.90;;;;;;5052030;28;20703;-82
2023/03/14 00:53:22;;;;;;;25.13;4.90;;;9.80;99.90;;;;;;5052061;28;20284;-78
2023/03/14 00:55:49;;;;;;;23.53;4.97;;;9.80;99.90;;;;;;5052570;28;20225;-79
2023/03/14 00:58:18;;;;;;;21.60;5.27;;;9.80;99.90;;;;;;5051626;28;20313;-77
2023/03/14 01:00:46;;;;;;;31.07;5.70;;;9.80;99.90;;;;;;5052696;28;20493;-78
2023/03/14 01:03:14;;;;;;;23.67;5.57;;;9.80;99.90;;;;;;5052852;28;20689;-79
2023/03/14 01:05:43;;;;;;;21.30;4.33;;;9.70;99.90;;;;;;5052849;28;20291;-80
2023/03/14 01:08:11;;;;;;;20.27;4.47;;;9.70;99.90;;;;;;5052780;28;20301;-81
2023/03/14 01:10:40;;;;;;;20.17;4.30;;;9.70;99.90;;;;;;5052542;28;20202;-80
2023/03/14 01:13:07;;;;;;;31.23;6.10;;;9.80;99.90;;;;;;5052506;28;20228;-80
2023/03/14 01:15:34;;;;;;;26.80;6.13;;;9.70;99.90;;;;;;5063923;28;20587;-80
2023/03/14 01:18:01;;;;;;;24.63;4.50;;;9.70;99.90;;;;;;5071308;28;20341;-80
2023/03/14 01:20:28;;;;;;;26.63;6.93;;;9.70;99.90;;;;;;5072272;28;20276;-81
2023/03/14 01:22:57;;;;;;;28.30;5.00;;;9.70;99.90;;;;;;5072459;28;20207;-81
2023/03/14 01:25:23;;;;;;;31.27;7.13;;;9.70;99.90;;;;;;5051654;28;20614;-80
2023/03/14 01:27:50;;;;;;;34.77;6.10;;;9.70;99.90;;;;;;5052669;28;20197;-81
2023/03/14 01:30:17;;;;;;;37.93;7.10;;;9.70;99.90;;;;;;5052186;28;20293;-79
2023/03/14 01:32:44;;;;;;;22.20;5.33;;;9.60;99.90;;;;;;5052102;28;20686;-81
2023/03/14 01:35:11;;;;;;;25.97;6.33;;;9.60;99.90;;;;;;5052675;28;20258;-81
2023/03/14 01:37:38;;;;;;;36.50;7.63;;;9.60;99.90;;;;;;5052120;28;20324;-80
2023/03/14 01:40:10;;;;;;;29.60;6.10;;;9.60;99.90;;;;;;5052314;28;20583;-81
2023/03/14 01:42:37;;;;;;;33.80;5.97;;;9.60;99.90;;;;;;5052519;28;20204;-81
2023/03/14 01:45:05;;;;;;;28.17;6.63;;;9.60;99.90;;;;;;5051819;28;20198;-80
2023/03/14 01:47:32;;;;;;;33.00;6.17;;;9.60;99.90;;;;;;5051974;28;20225;-81
2023/03/14 01:50:02;;;;;;;29.67;6.20;;;9.60;99.90;;;;;;5052658;28;20584;-81
2023/03/14 01:52:34;;;;;;;34.10;8.00;;;9.60;99.90;;;;;;5052134;28;20213;-80
2023/03/14 01:55:07;;;;;;;33.57;7.63;;;9.60;99.90;;;;;;5052101;28;20305;-81
2023/03/14 01:57:37;;;;;;;31.30;6.53;;;9.60;99.90;;;;;;5052167;28;20304;-80
2023/03/14 02:00:11;;;;;;;37.07;7.43;;;9.60;99.90;;;;;;5052247;28;20237;-80
2023/03/14 02:02:40;;;;;;;35.97;6.50;;;9.50;99.90;;;;;;5052054;28;20212;-80
2023/03/14 02:05:07;;;;;;;37.70;6.83;;;9.50;99.90;;;;;;5052097;28;20763;-80
2023/03/14 02:07:39;;;;;;;26.40;5.90;;;9.50;99.90;;;;;;5051474;28;20276;-81
2023/03/14 02:10:10;;;;;;;41.23;8.30;;;9.50;99.90;;;;;;5052173;28;20558;-77
2023/03/14 02:12:38;;;;;;;27.07;5.57;;;9.50;99.90;;;;;;5051759;28;20722;-81
2023/03/14 02:15:06;;;;;;;33.33;5.87;;;9.50;99.90;;;;;;5051763;28;20335;-81
2023/03/14 02:17:33;;;;;;;36.53;6.97;;;9.50;99.90;;;;;;5057372;28;20604;-80
2023/03/14 02:20:27;;;;;;;36.63;6.77;;;9.50;99.90;;;;;;5059975;28;20205;-81
2023/03/14 02:22:54;;;;;;;34.93;7.37;;;9.50;99.90;;;;;;5072261;28;20195;-78
2023/03/14 02:25:32;;;;;;;35.53;6.00;;;9.50;99.90;;;;;;5074860;28;20228;-81
2023/03/14 02:28:01;;;;;;;35.43;5.67;;;9.50;99.90;;;;;;5075969;28;20644;-77
2023/03/14 02:30:30;;;;;;;34.57;5.80;;;9.50;99.90;;;;;;5075237;28;20657;-80
2023/03/14 02:33:02;;;;;;;25.97;5.40;;;9.50;99.90;;;;;;5057063;28;20210;-81
2023/03/14 02:35:36;;;;;;;29.07;6.97;;;9.50;99.90;;;;;;5054689;28;20323;-76
2023/03/14 02:38:12;;;;;;;33.83;5.47;;;9.50;99.90;;;;;;5055295;28;20329;-81
2023/03/14 02:40:39;;;;;;;26.67;6.53;;;9.50;99.90;;;;;;5055362;28;20568;-78
2023/03/14 02:43:07;;;;;;;24.27;6.10;;;9.50;99.90;;;;;;5055572;28;20281;-80
2023/03/14 02:45:40;;;;;;;28.87;5.77;;;9.50;99.90;;;;;;5059056;28;20281;-80
2023/03/14 02:48:14;;;;;;;33.87;5.23;;;9.50;99.90;;;;;;5074957;28;20276;-80
2023/03/14 02:50:41;;;;;;;32.37;4.90;;;9.50;99.90;;;;;;5065209;28;20272;-79
2023/03/14 02:53:08;;;;;;;32.83;6.03;;;9.50;99.90;;;;;;5055373;28;20198;-80
2023/03/14 02:55:35;;;;;;;28.53;5.27;;;9.50;99.90;;;;;;5055697;28;20198;-78
2023/03/14 02:58:02;;;;;;;26.50;5.40;;;9.50;99.90;;;;;;5055213;28;20255;-82
2023/03/14 03:00:31;;;;;;;22.43;5.10;;;9.50;99.90;;;;;;5054942;28;20281;-79
2023/03/14 03:02:58;;;;;;;26.20;5.57;;;9.50;99.90;;;;;;5071172;28;20273;-81
2023/03/14 03:05:25;;;;;;;18.20;4.37;;;9.60;99.90;;;;;;5074927;28;20284;-81
2023/03/14 03:07:52;;;;;;;23.17;4.87;;;9.50;99.90;;;;;;5074923;28;20417;-79
2023/03/14 03:10:20;;;;;;;29.50;5.60;;;9.50;99.90;;;;;;5074324;28;20193;-79
2023/03/14 03:12:47;;;;;;;22.93;4.83;;;9.60;99.90;;;;;;5075057;28;20288;-80
2023/03/14 03:15:13;;;;;;;21.50;4.17;;;9.60;99.90;;;;;;5074629;28;20205;-79
2023/03/14 03:17:42;;;;;;;24.90;5.63;;;9.60;99.90;;;;;;5073017;28;20655;-80
2023/03/14 03:20:10;;;;;;;16.07;3.50;;;9.60;99.90;;;;;;5074981;28;20198;-81
2023/03/14 03:22:38;;;;;;;23.47;4.13;;;9.60;99.90;;;;;;5060535;28;20237;-80
2023/03/14 03:25:07;;;;;;;21.67;4.47;;;9.60;99.90;;;;;;5054783;28;20277;-80
2023/03/14 03:27:35;;;;;;;19.80;3.77;;;9.70;99.90;;;;;;5054253;28;20286;-81
2023/03/14 03:30:03;;;;;;;22.00;4.40;;;9.70;99.90;;;;;;5054436;28;20202;-81
2023/03/14 03:32:30;;;;;;;22.90;4.67;;;9.80;99.90;;;;;;5070601;28;20284;-80
2023/03/14 03:34:58;;;;;;;21.00;4.50;;;9.80;99.90;;;;;;5074648;28;20247;-79
2023/03/14 03:37:25;;;;;;;23.07;4.70;;;9.80;99.90;;;;;;5074544;28;20344;-79
2023/03/14 03:39:53;;;;;;;19.90;3.97;;;9.80;99.90;;;;;;5067990;28;20661;-79
2023/03/14 03:42:20;;;;;;;21.03;4.37;;;9.80;99.90;;;;;;5064539;28;20522;-81
2023/03/14 03:44:47;;;;;;;26.73;4.73;;;9.80;99.90;;;;;;5073301;28;20601;-80
2023/03/14 03:47:14;;;;;;;23.63;4.57;;;9.80;99.90;;;;;;5054133;28;20294;-78
2023/03/14 03:49:41;;;;;;;21.63;5.13;;;9.80;99.90;;;;;;5055683;28;20257;-81
2023/03/14 03:52:10;;;;;;;16.53;3.77;;;9.80;99.90;;;;;;5055378;28;20198;-83
2023/03/14 03:54:37;;;;;;;18.57;4.80;;;9.70;99.90;;;;;;5054708;28;20255;-80
2023/03/14 03:57:04;;;;;;;20.23;4.80;;;9.70;99.90;;;;;;5055756;28;20206;-81
2023/03/14 03:59:31;;;;;;;23.77;4.57;;;9.70;99.90;;;;;;5060503;28;20316;-89
2023/03/14 04:01:57;;;;;;;18.10;4.13;;;9.70;99.90;;;;;;5076190;28;20262;-91
2023/03/14 04:04:24;;;;;;;26.13;6.10;;;9.70;99.90;;;;;;5076106;28;20726;-86
2023/03/14 04:06:51;;;;;;;13.13;5.47;;;9.70;99.90;;;;;;5075972;28;20301;-85
2023/03/14 04:09:20;;;;;;;17.93;4.53;;;9.70;99.90;;;;;;5063691;28;21612;-90
2023/03/14 04:11:47;;;;;;;18.37;5.37;;;9.60;99.90;;;;;;5056003;28;20237;-90
2023/03/14 04:14:14;;;;;;;20.40;5.00;;;9.60;99.90;;;;;;5055909;28;20205;-87
2023/03/14 04:16:40;;;;;;;24.47;5.73;;;9.60;99.90;;;;;;5055337;28;20229;-83
2023/03/14 04:19:07;;;;;;;30.10;7.20;;;9.60;99.90;;;;;;5063279;28;20375;-85
2023/03/14 04:21:34;;;;;;;17.13;4.93;;;9.50;99.90;;;;;;5075178;28;20292;-89
2023/03/14 04:24:01;;;;;;;23.47;6.47;;;9.50;99.90;;;;;;5065033;28;20289;-81
2023/03/14 04:26:29;;;;;;;23.67;6.40;;;9.50;99.90;;;;;;5055584;28;20202;-82
2023/03/14 04:28:56;;;;;;;21.00;5.40;;;9.50;99.90;;;;;;5055514;28;20649;-85
2023/03/14 04:31:24;;;;;;;19.03;5.73;;;9.50;99.90;;;;;;5055344;28;20221;-86
2023/03/14 04:33:51;;;;;;;26.27;6.50;;;9.50;99.90;;;;;;5055559;28;20229;-88
2023/03/14 04:36:17;;;;;;;31.53;7.00;;;9.40;99.90;;;;;;5055069;28;20317;-86
2023/03/14 04:38:44;;;;;;;17.77;5.63;;;9.40;99.90;;;;;;5055813;28;20327;-89
2023/03/14 04:41:11;;;;;;;19.97;5.93;;;9.40;99.90;;;;;;5055195;28;20285;-88
2023/03/14 04:43:40;;;;;;;26.70;7.40;;;9.40;99.90;;;;;;5054771;28;20225;-86
2023/03/14 04:46:07;;;;;;;24.70;6.20;;;9.40;99.90;;;;;;5054301;28;20202;-87
2023/03/14 04:48:34;;;;;;;29.00;6.60;;;9.40;99.90;;;;;;5055145;28;20210;-87
2023/03/14 04:51:01;;;;;;;24.53;6.47;;;9.30;99.90;;;;;;5055048;28;20554;-88
2023/03/14 04:53:28;;;;;;;30.47;7.10;;;9.40;99.90;;;;;;5054544;28;20281;-87
2023/03/14 04:55:56;;;;;;;32.50;6.27;;;9.40;99.90;;;;;;5054402;28;22420;-86
2023/03/14 04:58:24;;;;;;;25.73;7.00;;;9.30;99.90;;;;;;5054861;28;20308;-86
2023/03/14 05:00:52;;;;;;;26.57;6.80;;;9.30;99.90;;;;;;5054740;28;20677;-85
2023/03/14 05:03:20;;;;;;;30.67;6.63;;;9.30;99.90;;;;;;5054467;28;20233;-88
2023/03/14 05:05:47;;;;;;;24.23;5.57;;;9.30;99.90;;;;;;5054638;28;20733;-89
2023/03/14 05:08:14;;;;;;;30.50;6.67;;;9.30;99.90;;;;;;5054830;28;20308;-86
2023/03/14 05:10:41;;;;;;;27.70;8.33;;;9.30;99.90;;;;;;5054266;28;20606;-88
2023/03/14 05:13:08;;;;;;;34.33;6.70;;;9.40;99.90;;;;;;5073956;28;20221;-87
2023/03/14 05:15:34;;;;;;;25.73;5.77;;;9.30;99.90;;;;;;5066214;28;20292;-87
2023/03/14 05:18:03;;;;;;;20.73;4.07;;;9.30;99.90;;;;;;5054176;28;20565;-84
2023/03/14 05:20:31;;;;;;;17.07;3.03;;;9.20;99.90;;;;;;5054230;28;20606;-86
2023/03/14 05:22:57;;;;;;;15.63;3.00;;;9.10;99.90;;;;;;5054721;28;20240;-87
2023/03/14 05:25:24;;;;;;;16.03;2.63;;;9.00;99.90;;;;;;5054431;28;20301;-86
2023/03/14 05:27:54;;;;;;;13.37;3.10;;;8.90;99.90;;;;;;5054641;28;20198;-87
2023/03/14 05:30:21;;;;;;;15.50;3.13;;;8.80;99.90;;;;;;5054410;28;20281;-86
2023/03/14 05:32:48;;;;;;;18.40;2.63;;;8.70;99.90;;;;;;5073738;28;20288;-86
2023/03/14 05:35:17;;;;;;;8.17;1.80;;;8.70;99.90;;;;;;5074789;28;20682;-86
2023/03/14 05:37:43;;;;;;;10.90;2.40;;;8.60;99.90;;;;;;5073995;28;20272;-85
2023/03/14 05:40:11;;;;;;;11.27;2.80;;;8.60;99.90;;;;;;5074064;28;20312;-85
2023/03/14 05:42:38;;;;;;;10.83;2.13;;;8.60;99.90;;;;;;5054517;28;20285;-87
2023/03/14 05:45:06;;;;;;;12.20;3.03;;;8.50;99.90;;;;;;5053754;28;20297;-86
2023/03/14 05:47:33;;;;;;;13.77;1.77;;;8.50;99.90;;;;;;5054243;28;20212;-84
2023/03/14 05:50:00;;;;;;;7.50;1.93;;;8.50;99.90;;;;;;5054161;28;20205;-88
2023/03/14 05:52:28;;;;;;;9.50;1.73;;;8.40;99.90;;;;;;5053916;28;20218;-86
2023/03/14 05:54:55;;;;;;;11.17;1.67;;;8.30;99.90;;;;;;5054835;28;20233;-87
2023/03/14 05:57:22;;;;;;;8.20;2.10;;;8.20;99.90;;;;;;5054012;28;20554;-83
2023/03/14 05:59:49;;;;;;;15.93;2.80;;;8.20;99.90;;;;;;5076888;28;20304;-84
2023/03/14 06:02:16;;;;;;;10.03;2.17;;;8.20;99.90;;;;;;5076847;28;20198;-78
2023/03/14 06:04:43;;;;;;;19.30;5.17;;;8.10;99.90;;;;;;5075591;28;20302;-85
2023/03/14 06:07:09;;;;;;;12.43;2.40;;;8.10;99.90;;;;;;5056504;28;20198;-76
2023/03/14 06:09:39;;;;;;;9.73;2.47;;;8.10;99.90;;;;;;5056324;28;20224;-78
2023/03/14 06:12:06;;;;;;;9.47;1.83;;;8.10;99.90;;;;;;5056112;28;20217;-76
2023/03/14 06:14:33;;;;;;;8.37;2.07;;;8.00;99.90;;;;;;5055720;28;20765;-75
2023/03/14 06:17:00;;;;;;;10.33;2.33;;;8.00;99.90;;;;;;5068214;28;20585;-75
2023/03/14 06:19:27;;;;;;;21.17;3.93;;;7.90;99.90;;;;;;5076440;28;20304;-80
2023/03/14 06:21:54;;;;;;;9.10;1.57;;;7.90;99.90;;;;;;5066178;28;20206;-81
2023/03/14 06:24:21;;;;;;;9.67;2.90;;;7.90;99.90;;;;;;5056411;28;20305;-79
2023/03/14 06:26:49;;;;;;;14.00;2.23;;;7.80;99.90;;;;;;5055743;28;20291;-78
2023/03/14 06:29:16;;;;;;;18.67;2.43;;;7.80;99.90;;;;;;5082029;28;20193;-80
2023/03/14 06:31:43;;;;;;;10.10;2.20;;;7.80;99.90;;;;;;5093766;28;20517;-74
2023/03/14 06:34:10;;;;;;;8.37;2.00;;;7.80;99.90;;;;;;5056180;28;20700;-74
2023/03/14 06:36:36;;;;;;;6.73;1.30;;;7.80;99.90;;;;;;5055854;28;20293;-75
2023/03/14 06:39:03;;;;;;;11.47;2.03;;;7.80;99.90;;;;;;5055795;28;20293;-86
2023/03/14 06:41:30;;;;;;;8.57;1.70;;;7.70;99.90;;;;;;5055400;28;20288;-80
2023/03/14 06:43:58;;;;;;;10.27;1.73;;;7.80;99.90;;;;;;5056086;28;20198;-78
2023/03/14 06:46:25;;;;;;;12.87;2.17;;;7.70;99.90;;;;;;5055473;28;20198;-79
2023/03/14 06:48:53;;;;;;;11.53;3.00;;;7.50;99.90;;;;;;5055558;28;20205;-74
2023/03/14 06:51:20;;;;;;;6.73;2.27;;;7.30;99.90;;;;;;5056263;28;20251;-84
2023/03/14 06:53:47;;;;;;;9.60;2.70;;;7.10;99.90;;;;;;5055784;28;20301;-79
2023/03/14 06:56:13;;;;;;;12.97;2.90;;;7.00;99.90;;;;;;5055053;28;20198;-79
2023/03/14 06:58:40;;;;;;;11.83;2.43;;;6.90;99.90;;;;;;5055308;28;20312;-84
2023/03/14 07:01:20;;;;;;;12.47;2.50;;;6.80;99.90;;;;;;5055747;28;20570;-77
2023/03/14 07:03:47;;;;;;;13.10;2.40;;;6.70;99.90;;;;;;5054706;28;20276;-78
2023/03/14 07:06:14;;;;;;;13.93;2.30;;;6.70;99.90;;;;;;5057402;28;20686;-77
2023/03/14 07:08:41;;;;;;;14.17;2.83;;;6.60;99.90;;;;;;5074444;28;20304;-77
2023/03/14 07:11:09;;;;;;;9.13;2.13;;;6.50;99.90;;;;;;5069272;28;20285;-77
2023/03/14 07:13:36;;;;;;;11.00;2.73;;;6.40;99.90;;;;;;5054879;28;20202;-75
2023/03/14 07:16:04;;;;;;;6.40;1.50;;;6.40;99.90;;;;;;5054342;28;20225;-75
2023/03/14 07:18:32;;;;;;;6.57;1.60;;;6.40;99.90;;;;;;5053989;28;20198;-78
2023/03/14 07:20:59;;;;;;;6.00;1.50;;;6.40;99.90;;;;;;5054318;28;20210;-78
2023/03/14 07:23:26;;;;;;;14.87;2.47;;;6.40;99.90;;;;;;5054433;28;20284;-76
2023/03/14 07:25:53;;;;;;;9.53;2.23;;;6.40;99.90;;;;;;5054550;28;20236;-75
2023/03/14 07:28:20;;;;;;;3.53;1.43;;;6.30;99.90;;;;;;5054654;28;20801;-81
2023/03/14 07:30:47;;;;;;;5.47;1.30;;;6.30;99.90;;;;;;5054242;28;20202;-77
2023/03/14 07:33:14;;;;;;;7.93;1.40;;;6.30;99.90;;;;;;5054084;28;20202;-78
2023/03/14 07:35:43;;;;;;;6.47;1.53;;;6.30;99.90;;;;;;5059443;28;20213;-76
2023/03/14 07:38:10;;;;;;;12.23;1.70;;;6.20;99.90;;;;;;5054571;28;20712;-84
2023/03/14 07:40:36;;;;;;;7.90;1.53;;;6.20;99.90;;;;;;5055277;28;20229;-80
2023/03/14 07:43:03;;;;;;;6.27;1.40;;;6.30;99.90;;;;;;5054057;28;20288;-78
2023/03/14 07:45:30;;;;;;;5.23;1.40;;;6.30;99.90;;;;;;5053465;28;20603;-84
2023/03/14 07:47:57;;;;;;;5.50;1.30;;;6.30;99.90;;;;;;5081076;28;20207;-77
2023/03/14 07:50:24;;;;;;;8.73;1.77;;;6.30;99.90;;;;;;5074138;28;20212;-86
2023/03/14 07:52:53;;;;;;;7.03;1.73;;;6.30;99.90;;;;;;5081487;28;20218;-86
2023/03/14 07:55:20;;;;;;;10.43;1.80;;;6.40;99.90;;;;;;5063712;28;20209;-75
2023/03/14 07:57:46;;;;;;;11.63;2.97;;;6.50;99.90;;;;;;5063780;28;20201;-78
2023/03/14 08:00:14;;;;;;;12.73;2.50;;;6.50;99.90;;;;;;5086042;28;20242;-79
2023/03/14 08:03:13;;;;;;;13.73;2.07;;;6.50;99.90;;;;;;5066140;28;20462;-85
2023/03/14 08:05:41;;;;;;;8.43;1.70;;;6.60;99.90;;;;;;5088376;28;20200;-84
2023/03/14 08:08:10;;;;;;;10.23;2.43;;;6.70;99.90;;;;;;5066787;28;20283;-85
2023/03/14 08:10:37;;;;;;;9.83;3.23;;;6.80;99.90;;;;;;5066892;28;20628;-84
2023/03/14 08:13:03;;;;;;;11.50;2.40;;;6.80;99.90;;;;;;5081099;28;20279;-82
2023/03/14 08:15:31;;;;;;;11.17;3.10;;;6.90;99.90;;;;;;5094470;28;20292;-87
2023/03/14 08:17:58;;;;;;;18.37;3.03;;;7.00;99.90;;;;;;5060013;28;20205;-78
2023/03/14 08:20:33;;;;;;;15.10;2.27;;;6.90;99.90;;;;;;5070059;28;20345;-88
2023/03/14 08:23:04;;;;;;;14.23;3.27;;;7.00;99.90;;;;;;5078044;28;20203;-86
2023/03/14 08:25:32;;;;;;;14.97;2.50;;;7.00;99.90;;;;;;5073942;28;20292;-86
2023/03/14 08:28:00;;;;;;;17.13;3.40;;;7.00;99.90;;;;;;5055597;28;20221;-83
2023/03/14 08:30:26;;;;;;;14.30;2.57;;;7.10;99.90;;;;;;5055357;28;20677;-86
2023/03/14 08:32:53;;;;;;;17.20;3.77;;;7.10;99.90;;;;;;5054057;28;20491;-79
2023/03/14 08:35:20;;;;;;;14.67;2.83;;;7.20;99.90;;;;;;5054790;28;20196;-86
2023/03/14 08:37:47;;;;;;;17.47;3.60;;;7.10;99.90;;;;;;5053171;28;20247;-80
2023/03/14 08:40:16;;;;;;;18.80;4.50;;;7.20;99.90;;;;;;5052721;28;20724;-85
2023/03/14 08:42:45;;;;;;;16.93;3.40;;;7.20;99.90;;;;;;5052535;28;20205;-85
2023/03/14 08:45:14;;;;;;;10.20;2.70;;;7.20;99.90;;;;;;5052512;28;20210;-84
2023/03/14 08:47:41;;;;;;;15.47;3.40;;;7.10;99.90;;;;;;5054165;28;20296;-87
2023/03/14 08:50:10;;;;;;;13.40;2.93;;;6.90;99.90;;;;;;5055012;28;20194;-84
2023/03/14 08:52:37;;;;;;;10.97;2.50;;;6.70;99.90;;;;;;5075004;28;20205;-80
2023/03/14 08:55:05;;;;;;;19.50;4.43;;;6.50;99.90;;;;;;5059187;28;20268;-88
2023/03/14 08:57:32;;;;;;;21.03;4.20;;;6.40;99.90;;;;;;5055401;28;20285;-88
2023/03/14 09:00:00;;;;;;;14.90;2.83;;;6.40;99.90;;;;;;5055437;28;20220;-87
2023/03/14 09:02:28;;;;;;;15.70;3.77;;;6.40;99.90;;;;;;5054640;28;20835;-84
2023/03/14 09:04:55;;;;;;;19.33;3.40;;;6.40;99.90;;;;;;5054850;28;20202;-84
2023/03/14 09:07:22;;;;;;;24.43;3.77;;;6.50;99.90;;;;;;5062515;28;20285;-83
2023/03/14 09:09:49;;;;;;;17.80;3.60;;;6.50;99.90;;;;;;5074181;28;20593;-82
2023/03/14 09:12:16;;;;;;;25.13;4.00;;;6.50;99.90;;;;;;5074448;28;20347;-85
2023/03/14 09:14:43;;;;;;;24.90;5.70;;;6.50;99.90;;;;;;5073869;28;20284;-84
2023/03/14 09:17:11;;;;;;;16.20;4.37;;;6.60;99.90;;;;;;5053697;28;20317;-85
2023/03/14 09:19:38;;;;;;;31.87;5.37;;;6.60;99.90;;;;;;5062103;28;20221;-83
2023/03/14 09:22:05;;;;;;;23.07;3.67;;;6.70;99.90;;;;;;5074814;28;20599;-85
2023/03/14 09:24:32;;;;;;;21.43;4.10;;;6.80;99.90;;;;;;5072051;28;20304;-84
2023/03/14 09:26:59;;;;;;;20.13;3.70;;;6.80;99.90;;;;;;5058070;28;20288;-87
2023/03/14 09:29:26;;;;;;;19.57;3.97;;;6.80;99.90;;;;;;5063971;28;20292;-85
2023/03/14 09:31:53;;;;;;;19.00;4.00;;;6.80;99.90;;;;;;5070174;28;20595;-89
2023/03/14 09:34:21;;;;;;;19.10;3.67;;;6.80;99.90;;;;;;5085637;28;20623;-86
2023/03/14 09:36:48;;;;;;;23.13;4.30;;;6.80;99.90;;;;;;5066578;28;20231;-83
2023/03/14 09:39:15;;;;;;;19.13;4.77;;;6.80;99.90;;;;;;5067905;28;20299;-82
2023/03/14 09:41:45;;;;;;;20.00;4.90;;;6.80;99.90;;;;;;5070713;28;20205;-81
2023/03/14 09:44:17;;;;;;;25.90;5.13;;;6.80;99.90;;;;;;5053688;28;20597;-91
2023/03/14 09:46:48;;;;;;;22.67;4.73;;;6.80;99.90;;;;;;5054200;28;20197;-85
2023/03/14 09:49:24;;;;;;;22.10;4.70;;;6.80;99.90;;;;;;5053106;28;20201;-88
2023/03/14 09:51:55;;;;;;;17.33;4.17;;;6.90;99.90;;;;;;5059587;28;20292;-85
2023/03/14 09:54:38;;;;;;;23.43;4.63;;;6.90;99.90;;;;;;5074463;28;20240;-79
2023/03/14 09:57:06;;;;;;;14.63;3.10;;;7.10;99.90;;;;;;5073683;28;20300;-86
2023/03/14 09:59:36;;;;;;;20.53;4.27;;;7.10;99.90;;;;;;5076100;28;20197;-85
2023/03/14 10:02:15;;;;;;;19.97;3.70;;;7.10;99.90;;;;;;5079235;28;20236;-82
2023/03/14 10:04:44;;;;;;;17.17;3.87;;;7.10;99.90;;;;;;5073740;28;20265;-78
2023/03/14 10:07:15;;;;;;;19.33;3.67;;;7.20;99.90;;;;;;5072941;28;20201;-84
2023/03/14 10:09:44;;;;;;;20.97;3.13;;;7.10;99.90;;;;;;5077959;28;20224;-84
2023/03/14 10:12:12;;;;;;;12.40;3.23;;;7.10;99.90;;;;;;5067375;28;20792;-85
2023/03/14 10:14:47;;;;;;;11.63;3.27;;;7.30;99.90;;;;;;5087628;28;20560;-79
2023/03/14 10:17:15;;;;;;;14.60;3.30;;;7.50;99.90;;;;;;5093131;28;20284;-78
2023/03/14 10:19:54;;;;;;;20.07;3.90;;;7.60;99.90;;;;;;5081193;28;20285;-80
2023/03/14 10:22:22;;;;;;;17.97;2.73;;;7.70;99.90;;;;;;5053743;28;20272;-84
2023/03/14 10:24:53;;;;;;;9.77;2.57;;;7.80;99.90;;;;;;5054079;28;20553;-81
2023/03/14 10:27:22;;;;;;;14.50;3.33;;;7.90;99.90;;;;;;5052788;28;20606;-84
2023/03/14 10:29:55;;;;;;;11.90;3.00;;;7.90;99.90;;;;;;5052794;28;20190;-84
2023/03/14 10:32:28;;;;;;;16.60;3.67;;;7.90;99.90;;;;;;5066733;28;20496;-79
2023/03/14 10:35:21;;;;;;;18.87;2.97;;;8.00;99.90;;;;;;5073014;28;20190;-81
2023/03/14 10:37:57;;;;;;;17.03;3.33;;;8.20;99.90;;;;;;5071306;28;20604;-83
2023/03/14 10:40:29;;;;;;;12.23;2.60;;;8.30;99.90;;;;;;5052767;28;20525;-81
2023/03/14 10:42:58;;;;;;;13.27;2.40;;;8.40;99.90;;;;;;5052534;28;20179;-80
2023/03/14 10:45:37;;;;;;;14.67;2.83;;;8.50;99.90;;;;;;5055848;28;20301;-79
2023/03/14 10:48:19;;;;;;;9.67;2.20;;;8.60;99.90;;;;;;5055557;28;20541;-80
2023/03/14 10:50:55;;;;;;;13.50;2.93;;;8.60;99.90;;;;;;5055003;28;20613;-79
2023/03/14 10:53:24;;;;;;;12.60;2.67;;;8.60;99.90;;;;;;5055529;28;20611;-82
2023/03/14 10:55:51;;;;;;;19.90;5.93;;;8.60;99.90;;;;;;5053185;28;20451;-79
2023/03/14 10:58:23;;;;;;;15.10;3.83;;;8.60;99.90;;;;;;5054925;28;20190;-79
2023/03/14 11:00:58;;;;;;;10.40;2.57;;;8.70;99.90;;;;;;5054586;28;20225;-77
2023/03/14 11:03:28;;;;;;;12.17;2.73;;;8.40;99.90;;;;;;5063650;28;20185;-78
2023/03/14 11:05:58;;;;;;;14.77;3.00;;;8.40;99.90;;;;;;5054899;28;20206;-78
2023/03/14 11:08:32;;;;;;;10.93;2.50;;;8.50;99.90;;;;;;5054718;28;20230;-77
2023/03/14 11:11:11;;;;;;;13.97;2.00;;;8.70;99.90;;;;;;5057064;28;20296;-78
2023/03/14 11:13:45;;;;;;;19.07;3.87;;;8.70;99.90;;;;;;5066321;28;20285;-79
2023/03/14 11:16:23;;;;;;;10.33;2.70;;;8.80;99.90;;;;;;5065033;28;20244;-78
2023/03/14 11:19:04;;;;;;;8.63;2.10;;;8.80;99.90;;;;;;5073550;28;20273;-77
2023/03/14 11:21:37;;;;;;;7.43;2.43;;;8.80;99.90;;;;;;5073081;28;20258;-79
2023/03/14 11:24:20;;;;;;;9.50;3.00;;;8.80;99.90;;;;;;5073317;28;20558;-79
2023/03/14 11:26:53;;;;;;;9.43;2.00;;;8.70;99.90;;;;;;5065032;28;20296;-80
2023/03/14 11:29:23;;;;;;;11.57;2.10;;;8.80;99.90;;;;;;5054755;28;20673;-76
2023/03/14 11:31:50;;;;;;;8.93;2.10;;;8.90;99.90;;;;;;5053506;28;20312;-78
2023/03/14 11:34:20;;;;;;;10.93;2.40;;;9.00;99.90;;;;;;5064854;28;20224;-77
2023/03/14 11:36:54;;;;;;;11.80;2.03;;;9.10;99.90;;;;;;5069303;28;20320;-80
2023/03/14 11:39:21;;;;;;;9.33;2.17;;;9.20;99.90;;;;;;5067113;28;20194;-79
2023/03/14 11:41:51;;;;;;;14.67;2.50;;;9.30;99.90;;;;;;5059383;28;20320;-81
2023/03/14 11:44:20;;;;;;;9.33;2.97;;;9.30;99.90;;;;;;5062821;28;20308;-78
2023/03/14 11:46:53;;;;;;;8.27;2.47;;;9.30;99.90;;;;;;5085333;28;20530;-79
2023/03/14 11:49:31;;;;;;;13.00;2.87;;;9.30;99.90;;;;;;5066418;28;20276;-78
2023/03/14 11:52:02;;;;;;;8.57;2.10;;;9.20;99.90;;;;;;5070475;28;20288;-75
2023/03/14 11:54:37;;;;;;;9.90;1.90;;;9.10;99.90;;;;;;5065775;28;20286;-78
2023/03/14 11:57:06;;;;;;;10.40;1.77;;;9.00;99.90;;;;;;5058685;28;20227;-78
2023/03/14 11:59:43;;;;;;;10.40;2.80;;;9.00;99.90;;;;;;5064566;28;20578;-81
2023/03/14 12:02:18;;;;;;;5.43;1.77;;;9.20;99.90;;;;;;5054027;28;20722;-84
2023/03/14 12:05:03;;;;;;;11.33;2.10;;;9.40;99.90;;;;;;5060333;28;20288;-80
2023/03/14 12:07:40;;;;;;;11.87;1.83;;;9.50;99.90;;;;;;5073797;28;20289;-80
2023/03/14 12:10:07;;;;;;;11.37;1.93;;;9.40;1.00;;;;;;5070546;28;20220;-79
2023/03/14 12:12:35;;;;;;;6.23;1.60;;;9.30;99.90;;;;;;5061642;28;20671;-80
2023/03/14 12:15:04;;;;;;;10.10;2.07;;;9.30;56.00;;;;;;5073602;28;20205;-81
2023/03/14 12:17:37;;;;;;;9.07;2.13;;;9.30;1.00;;;;;;5073482;28;20197;-79
2023/03/14 12:20:07;;;;;;;4.80;1.80;;;9.40;99.90;;;;;;5071207;28;20193;-80
2023/03/14 12:22:37;;;;;;;8.07;2.00;;;9.50;37.00;;;;;;5073737;28;20710;-82
2023/03/14 12:25:14;;;;;;;5.93;1.67;;;9.50;1.00;;;;;;5064030;28;20232;-80
2023/03/14 12:27:47;;;;;;;8.47;1.70;;;9.40;1.00;;;;;;5052174;28;20208;-79
2023/03/14 12:30:29;;;;;;;8.33;2.03;;;9.30;1.00;;;;;;5052447;28;20201;-80
2023/03/14 12:33:31;;;;;;;9.00;2.40;;;9.40;99.90;;;;;;5051821;28;20201;-80
2023/03/14 12:36:49;;;;;;;8.30;1.73;;;9.40;99.90;;;;;;5010201;28;20198;-81
2023/03/14 12:39:32;;;;;;;11.50;2.40;;;9.30;99.90;;;;;;5041608;28;20197;-80
2023/03/14 12:42:04;;;;;;;14.73;2.30;;;9.30;99.90;;;;;;5069911;28;20696;-80
2023/03/14 12:44:47;;;;;;;8.10;1.93;;;9.40;99.90;;;;;;5072953;28;20217;-79
2023/03/14 12:47:55;;;;;;;14.10;2.13;;;9.40;99.90;;;;;;5072507;28;20551;-78
2023/03/14 12:50:27;;;;;;;6.83;2.10;;;9.20;99.90;;;;;;5052956;28;20280;-80
2023/03/14 12:53:23;;;;;;;12.50;2.17;;;9.20;99.90;;;;;;5053069;28;20198;-79
2023/03/14 12:55:58;;;;;;;6.40;1.60;;;9.30;99.90;;;;;;5052067;28;20194;-79
2023/03/14 12:58:32;;;;;;;6.10;1.60;;;9.10;99.90;;;;;;5053680;28;20246;-79
2023/03/14 13:01:02;;;;;;;7.90;1.97;;;8.80;99.90;;;;;;5072322;28;20224;-78